Honey Creek, Illinois
Current Conditions -  °F | °C
As of 12:55 AM on Monday 22 Dec 2014 (Local Time) from KRPJ Reporting Station
Light Rain Light Rain  
Wind Chill: -5°   Ceiling: 2000
Heat Index:   Visibility: 4mi
Dew Point: -1°   Wind: 13mph
Humidity: 95%   Direction: 160°SSE
Pressure: 29.96"   Gusts: NA
Location:  41.9937°N, 89.1961°W
Report Text: KRPJ 220655Z AUTO 16011KT 4SM -RA BKN020 OVC027 00/M01 A2996 RMK AO2 T00001007
Loading
Personal Weather Stations






























Interactive Weather Map New forecast layout! Learn more

10-Day Weather Forecast

Advertisements
Track Severe Weather on mobile